Latest Weather Observations for Lameroo AWS

IDS60801

Issued at 10:05 pm CST Wednesday 20 August 2014 (issued every 30 minutes, with the page automatically refreshed every 10 minutes)

About weather observations | Map of weather stations | Latest weather observations for SA | Other Formats
Station Details ID: 025562 Name: AUSTIN PLAINS Lat: -35.38 Lon: 140.54 Height: 110.08 m
Data from the previous 72 hours. | See also: Recent months at Lameroo AWS
Date/Time
CST
Temp
°C
App
Temp
°C
Dew
Point
Rel
Hum
%
Delta-T
°C
Wind Press
QNH
hPa
Press
MSL
hPa
Rain
since 9 am
mm
Dir
 
Spd
km/h
Gust
km/h
Spd
kts
Gust
kts
20/10:00pm 2.8 -2.2 1.3 90 0.6 SSE 17 19 9 10 1027.5 1027.6 0.0
20/09:30pm 3.1 -1.2 1.0 86 0.8 SSE 13 15 7 8 1027.4 1027.5 0.0
20/09:00pm 4.3 -0.6 1.8 84 1.0 SSE 17 17 9 9 1027.3 1027.4 0.0
20/08:30pm 4.8 0.3 2.2 83 1.0 SSE 15 15 8 8 1027.4 1027.5 0.0
20/08:00pm 4.8 0.3 2.2 83 1.0 SSE 15 15 8 8 1027.2 1027.3 0.0
20/07:30pm 5.5 1.0 2.2 79 1.3 SSE 15 17 8 9 1027.1 1027.2 0.0
20/07:00pm 5.6 1.1 2.4 80 1.3 SSE 15 15 8 8 1027.0 1027.1 0.0
20/06:30pm 6.5 2.5 2.8 77 1.5 S 13 15 7 8 1026.8 1026.9 0.0
20/06:00pm 7.6 3.6 3.1 73 1.9 SSE 13 15 7 8 1026.7 1026.8 0.0
20/05:30pm 9.6 5.7 3.6 66 2.6 SSE 13 19 7 10 1026.6 1026.7 0.0
20/05:00pm 11.7 7.1 3.7 58 3.6 S 17 22 9 12 1026.2 1026.3 0.0
20/04:30pm 12.6 8.4 3.8 55 3.9 SSE 15 20 8 11 1026.1 1026.2 0.0
20/04:00pm 13.2 9.0 3.8 53 4.3 S 15 20 8 11 1025.9 1026.0 0.0
20/03:30pm 13.7 9.8 3.5 50 4.6 S 13 20 7 11 1025.9 1026.0 0.0
20/03:00pm 13.9 10.4 3.7 50 4.6 S 11 15 6 8 1026.0 1026.1 0.0
20/02:30pm 14.1 10.6 3.3 48 4.9 S 11 20 6 11 1026.0 1026.1 0.0
20/02:00pm 14.0 10.4 3.2 48 4.9 S 11 19 6 10 1026.0 1026.1 0.0
20/01:30pm 14.1 11.1 4.1 51 4.6 S 9 19 5 10 1025.9 1026.0 0.0
20/01:00pm 13.6 10.9 2.5 47 4.9 SSW 6 15 3 8 1026.2 1026.3 0.0
20/12:30pm 13.6 10.2 3.9 52 4.4 S 11 19 6 10 1026.6 1026.7 0.0
20/12:00pm 12.8 9.1 2.6 50 4.5 SSE 11 19 6 10 1027.1 1027.2 0.0
20/11:30am 12.7 9.9 3.4 53 4.1 SE 7 15 4 8 1027.4 1027.5 0.0
20/11:00am 11.8 8.6 3.1 55 3.8 ESE 9 15 5 8 1027.8 1027.9 0.0
20/10:30am 11.6 7.4 3.9 59 3.4 ESE 15 20 8 11 1027.9 1028.0 0.0
20/10:00am 10.9 5.8 3.2 59 3.4 ESE 19 24 10 13 1027.9 1028.0 0.0
20/09:30am 10.3 5.3 3.8 64 2.9 ESE 19 26 10 14 1028.0 1028.1 0.0
20/09:00am 8.7 3.8 3.9 72 2.1 ESE 19 22 10 12 1027.9 1028.0 0.0
20/08:30am 7.7 3.2 4.1 78 1.6 SE 17 20 9 11 1027.9 1028.0 0.0
20/08:00am 5.4 1.5 3.3 86 0.9 SE 13 19 7 10 1027.6 1027.7 0.0
20/07:30am 2.6 -2.0 1.7 94 0.3 SSE 15 17 8 9 1027.3 1027.4 0.0
20/07:00am 1.0 -3.8 0.3 95 0.3 SSE 15 15 8 8 1027.1 1027.2 0.0
20/06:30am 1.0 -3.8 0.4 96 0.2 SE 15 17 8 9 1026.8 1026.9 0.0
20/06:00am 1.1 -3.6 1.0 99 0.0 SSE 15 17 8 9 1026.5 1026.6 0.0
20/05:30am 1.3 -3.7 1.3 100 0.0 SSE 17 17 9 9 1026.4 1026.5 0.0
20/05:00am 0.9 -3.5 0.3 96 0.2 SSE 13 15 7 8 1026.3 1026.4 0.0
20/04:30am 2.6 -0.3 2.6 100 0.0 SE 7 9 4 5 1026.2 1026.3 0.0
20/04:00am 1.9 -1.5 1.9 100 0.0 SE 9 11 5 6 1026.1 1026.2 0.0
20/03:30am 2.5 -1.2 2.5 100 0.0 SE 11 13 6 7 1025.7 1025.8 0.0
20/03:00am 1.7 -3.0 1.1 96 0.2 SSE 15 15 8 8 1025.4 1025.5 0.0
20/02:30am 3.1 -0.9 3.1 100 0.0 SSE 13 15 7 8 1025.6 1025.7 0.0
20/02:00am 3.6 -0.3 3.6 100 0.0 S 13 13 7 7 1025.8 1025.9 0.0
20/01:30am 3.5 0.0 3.5 100 0.0 S 11 13 6 7 1025.8 1025.9 0.0
20/01:00am 3.5 0.4 3.5 100 0.0 S 9 9 5 5 1025.9 1026.0 0.0
20/12:30am 4.6 1.8 3.4 92 0.5 S 7 7 4 4 1025.9 1026.0 0.0
20/12:00am 6.1 3.8 4.7 91 0.6 SE 6 6 3 3 1026.0 1026.1 0.0
 
Date/Time
CST
Temp
°C
App
Temp
°C
Dew
Point
Rel
Hum
%
Delta-T
°C
Wind Press
QNH
hPa
Press
MSL
hPa
Rain
since 9 am
mm
Dir
 
Spd
km/h
Gust
km/h
Spd
kts
Gust
kts
19/11:30pm 5.0 2.2 3.2 88 0.7 SE 7 7 4 4 1025.9 1026.0 0.0
19/11:00pm 6.6 4.1 4.8 88 0.8 SSE 7 7 4 4 1025.9 1026.0 0.0
19/10:30pm 6.6 3.7 4.4 86 0.9 SSE 9 9 5 5 1026.0 1026.1 0.0
19/10:00pm 6.7 3.4 4.5 86 1.0 SSE 11 13 6 7 1026.0 1026.1 0.0
19/09:30pm 8.3 4.7 4.9 79 1.5 SSE 13 15 7 8 1025.9 1026.0 0.0
19/09:00pm 9.8 5.2 5.6 75 1.9 SSE 19 24 10 13 1025.7 1025.8 0.0
19/08:30pm 10.3 6.4 5.5 72 2.2 SSE 15 20 8 11 1025.8 1025.9 0.0
19/08:00pm 10.7 5.9 5.5 70 2.4 SSE 20 26 11 14 1025.5 1025.6 0.0
19/07:30pm 11.0 6.1 4.9 66 2.8 S 20 28 11 15 1025.2 1025.3 0.0
19/07:00pm 11.4 6.2 5.3 66 2.8 S 22 28 12 15 1025.0 1025.1 0.0
19/06:30pm 11.5 7.3 5.6 67 2.7 S 17 20 9 11 1025.0 1025.1 0.0
19/06:00pm 11.7 7.8 5.3 65 2.9 S 15 19 8 10 1024.7 1024.8 0.0
19/05:30pm 12.2 7.6 5.4 63 3.2 S 19 24 10 13 1024.3 1024.4 0.0
19/05:00pm 12.6 8.8 5.8 63 3.2 S 15 20 8 11 1024.2 1024.3 0.0
19/04:30pm 12.9 8.8 6.0 63 3.3 S 17 22 9 12 1024.1 1024.2 0.0
19/04:00pm 13.1 8.6 6.2 63 3.3 S 19 24 10 13 1023.9 1024.0 0.0
19/03:30pm 13.3 8.9 6.4 63 3.3 S 19 22 10 12 1023.9 1024.0 0.0
19/03:00pm 13.4 8.8 6.5 63 3.3 S 20 24 11 13 1023.8 1023.9 0.0
19/02:30pm 13.4 9.4 6.5 63 3.3 S 17 26 9 14 1023.8 1023.9 0.0
19/02:00pm 13.8 9.1 5.9 59 3.8 S 20 26 11 14 1023.5 1023.6 0.0
19/01:30pm 14.0 9.4 6.4 60 3.7 S 20 28 11 15 1023.6 1023.7 0.0
19/01:00pm 13.9 9.4 6.0 59 3.8 S 19 26 10 14 1023.8 1023.9 0.0
19/12:30pm 14.3 9.3 6.4 59 3.8 S 22 28 12 15 1024.1 1024.2 0.0
19/12:00pm 13.6 9.0 6.5 62 3.4 S 20 30 11 16 1024.5 1024.6 0.0
19/11:30am 12.9 7.9 6.5 65 3.1 SSE 22 30 12 16 1024.8 1024.9 0.0
19/11:00am 12.8 7.6 7.3 69 2.7 S 24 37 13 20 1025.1 1025.2 0.0
19/10:30am 11.9 6.2 6.6 70 2.5 S 26 32 14 17 1025.3 1025.4 0.0
19/10:00am 11.0 6.4 6.6 74 2.1 S 20 28 11 15 1025.5 - 0.0
19/09:30am 10.4 6.0 6.7 78 1.7 S 19 24 10 13 1025.4 1025.5 0.0
19/09:00am 9.3 5.2 6.4 82 1.3 S 17 22 9 12 1025.3 1025.4 0.0
19/08:30am 7.7 3.9 5.8 88 0.9 S 15 20 8 11 1025.3 1025.4 0.0
19/08:00am 6.9 3.0 5.5 91 0.6 S 15 20 8 11 1025.2 - 0.0
19/07:30am 6.4 2.5 5.2 92 0.5 S 15 19 8 10 1025.0 1025.1 0.0
19/07:00am 5.9 2.0 5.2 95 0.3 S 15 20 8 11 1024.7 - 0.0
19/06:30am 5.4 1.5 5.4 100 0.0 S 15 20 8 11 1024.3 1024.4 0.0
19/06:00am 4.9 1.3 4.9 100 0.0 SSW 13 17 7 9 1024.2 1024.3 0.0
19/05:30am 4.6 0.9 4.6 100 0.0 SSW 13 15 7 8 1024.1 1024.2 0.0
19/05:00am 4.8 1.2 4.8 100 0.0 SSW 13 17 7 9 1024.0 - 0.0
19/04:30am 4.8 1.2 4.8 100 0.0 SSW 13 19 7 10 1023.9 1024.0 0.0
19/04:00am 4.3 0.6 4.3 100 0.0 SSW 13 17 7 9 1023.8 - 0.0
19/03:30am 4.2 0.1 4.2 100 0.0 SSW 15 17 8 9 1023.8 1023.9 0.0
19/03:00am 4.0 0.2 4.0 100 0.0 SSW 13 15 7 8 1023.7 1023.8 0.0
19/02:30am 4.3 0.5 3.7 96 0.2 S 13 15 7 8 1023.9 1024.0 0.0
19/02:00am 4.1 0.3 3.8 98 0.1 S 13 15 7 8 1024.2 - 0.0
19/01:30am 3.9 -0.4 3.0 94 0.4 SSW 15 17 8 9 1024.2 1024.3 0.0
19/01:00am 3.6 -0.9 2.4 92 0.5 SSW 15 17 8 9 1024.2 - 0.0
19/12:30am 4.9 1.0 3.2 89 0.7 SSW 13 15 7 8 1024.2 1024.3 0.0
19/12:00am 5.8 2.0 3.8 87 0.8 SSW 13 17 7 9 1024.5 1024.6 0.0
 
Date/Time
CST
Temp
°C
App
Temp
°C
Dew
Point
Rel
Hum
%
Delta-T
°C
Wind Press
QNH
hPa
Press
MSL
hPa
Rain
since 9 am
mm
Dir
 
Spd
km/h
Gust
km/h
Spd
kts
Gust
kts
18/11:30pm 5.6 1.6 3.1 84 1.0 SSW 13 15 7 8 1024.6 1024.7 0.0
18/11:00pm 5.1 1.0 2.5 83 1.1 SSW 13 13 7 7 1024.7 - 0.0
18/10:30pm 5.2 1.4 2.0 80 1.3 SW 11 13 6 7 1024.6 1024.7 0.0
18/10:00pm 6.8 3.0 1.9 71 2.0 SSW 11 13 6 7 1024.5 - 0.0
18/09:30pm 8.2 4.4 2.0 65 2.6 SSW 11 15 6 8 1024.4 1024.5 0.0
18/09:00pm 9.0 5.3 2.1 62 2.9 SSW 11 15 6 8 1024.3 1024.4 0.0
18/08:30pm 9.4 4.8 1.8 59 3.2 SSW 15 19 8 10 1024.3 1024.4 0.0
18/08:00pm 9.6 5.0 1.3 56 3.4 SSW 15 20 8 11 1024.1 - 0.0
18/07:30pm 9.8 5.6 1.5 56 3.4 S 13 19 7 10 1024.0 1024.1 0.0
18/07:00pm 9.9 4.6 1.8 57 3.4 S 19 26 10 14 1023.9 - 0.0
18/06:30pm 10.1 4.8 2.0 57 3.4 SSE 19 28 10 15 1023.6 1023.7 0.0
18/06:00pm 10.4 4.9 1.8 55 3.6 S 20 28 11 15 1023.0 1023.2 0.0
18/05:30pm 10.8 4.6 1.9 54 3.8 S 24 33 13 18 1022.6 1022.8 0.0
18/05:00pm 11.0 5.6 2.3 55 3.7 S 20 30 11 16 1022.3 - 0.0
18/04:30pm 11.3 4.7 2.1 53 3.9 S 26 35 14 19 1022.0 1022.2 0.0
18/04:00pm 11.7 5.6 3.0 55 3.8 S 24 33 13 18 1021.8 - 0.0
18/03:30pm 11.8 6.0 2.5 53 4.0 S 22 32 12 17 1021.8 1022.0 0.0
18/03:00pm 12.0 5.9 2.7 53 4.1 S 24 33 13 18 1021.7 1021.9 0.0
18/02:30pm 12.6 6.1 2.5 50 4.4 S 26 37 14 20 1021.5 1021.7 0.0
18/02:00pm 12.3 6.3 3.3 54 4.0 S 24 35 13 19 1021.7 - 0.0
18/01:30pm 12.3 6.6 2.7 52 4.2 S 22 33 12 18 1021.7 1021.9 0.0
18/01:00pm 12.7 6.3 3.1 52 4.3 S 26 37 14 20 1021.8 - 0.0
18/12:30pm 12.7 5.8 2.8 51 4.4 S 28 41 15 22 1022.1 1022.3 0.0
18/12:00pm 11.6 5.1 2.9 55 3.8 S 26 33 14 18 1022.6 1022.8 0.0
18/11:30am 12.0 4.8 3.0 54 4.0 S 30 48 16 26 1022.9 1023.1 0.0
18/11:26am 11.8 5.0 3.1 55 3.8 S 28 48 15 26 1022.8 - 0.0
18/11:00am 11.5 5.1 3.3 57 3.6 S 26 37 14 20 1023.3 - 0.0
18/10:30am 11.5 5.2 3.8 59 3.4 S 26 33 14 18 1023.6 1023.7 0.0
18/10:00am 11.4 4.9 2.7 55 3.8 S 26 37 14 20 1023.8 - 0.0
18/09:30am 10.7 4.7 3.3 60 3.2 S 24 33 13 18 1023.8 1023.9 0.0
18/09:00am 9.9 3.9 3.6 65 2.8 S 24 32 13 17 1023.7 1023.8 0.2
18/08:30am 8.9 3.8 4.3 73 2.0 S 20 26 11 14 1023.5 1023.6 0.2
18/08:00am 7.1 2.9 3.9 80 1.4 SSE 15 19 8 10 1023.4 - 0.2
18/07:30am 5.6 1.3 3.4 86 0.9 S 15 19 8 10 1023.1 1023.3 0.2
18/07:00am 4.6 0.6 3.1 90 0.6 S 13 17 7 9 1023.1 - 0.2
18/06:30am 3.7 -0.7 2.5 92 0.5 S 15 17 8 9 1022.7 1022.9 0.2
18/06:00am 3.2 -1.1 3.2 100 0.0 S 15 19 8 10 1022.4 1022.6 0.2
18/05:30am 2.8 -1.6 2.8 100 0.0 SSW 15 17 8 9 1022.2 1022.4 0.2
18/05:00am 2.3 -2.2 2.3 100 0.0 SSW 15 17 8 9 1022.0 - 0.2
18/04:30am 1.6 -3.0 1.6 100 0.0 SSW 15 15 8 8 1021.8 1022.0 0.2
18/04:00am 1.6 -2.6 1.6 100 0.0 SSW 13 15 7 8 1021.7 - 0.2
18/03:30am 1.9 -2.6 1.9 100 0.0 SW 15 17 8 9 1021.5 1021.7 0.2
18/03:00am 1.9 -2.6 1.9 100 0.0 SW 15 15 8 8 1021.5 1021.7 0.2
18/02:30am 1.8 -2.4 1.8 100 0.0 SW 13 15 7 8 1021.7 1021.9 0.2
18/02:00am 1.6 -2.7 0.9 95 0.3 SSW 13 13 7 7 1021.8 - 0.2
18/01:30am 2.7 -1.4 2.0 95 0.3 SSW 13 15 7 8 1021.9 1022.1 0.2
18/01:00am 3.5 -0.6 2.5 93 0.4 SSW 13 15 7 8 1022.0 - 0.2
18/12:30am 4.0 -0.4 2.8 92 0.5 S 15 17 8 9 1021.9 1022.1 0.2
18/12:00am 4.3 0.0 3.1 92 0.5 S 15 15 8 8 1021.8 1022.0 0.2
 
Date/Time
CST
Temp
°C
App
Temp
°C
Dew
Point
Rel
Hum
%
Delta-T
°C
Wind Press
QNH
hPa
Press
MSL
hPa
Rain
since 9 am
mm
Dir
 
Spd
km/h
Gust
km/h
Spd
kts
Gust
kts
17/11:30pm 4.7 0.4 3.4 91 0.5 SSW 15 17 8 9 1021.7 1021.9 0.2
17/11:00pm 5.2 1.0 3.7 90 0.6 SSW 15 17 8 9 1021.7 - 0.2
17/10:30pm 5.9 1.4 4.1 88 0.8 S 17 19 9 10 1021.6 1021.8 0.2

Other Formats:

Comma delimited format used in spreadsheet applications
http://www.bom.gov.au/fwo/IDS60801/IDS60801.94690.axf

JavaScript Object Notation format (JSON) in row-major order
http://www.bom.gov.au/fwo/IDS60801/IDS60801.94690.json